Time;durP1;ratioP1;P1;durP2;ratioP2;P2;SDS_P1;SDS_P2;PMS_P1;PMS_P2;Temp;Humidity;BMP_temperature;BMP_pressure;BME280_temperature;BME280_humidity;BME280_pressure;Samples;Min_cycle;Max_cycle;Signal;HPM_P1;HPM_P2
2021/11/24 00:00:07;;;;;;;;;28.50;24.00;;;;;7.50;68.84;102358.19;5040983;28;47616;-80
2021/11/24 00:02:32;;;;;;;;;36.75;31.00;;;;;7.43;69.19;102342.97;5058295;28;45440;-80
2021/11/24 00:05:00;;;;;;;;;34.50;27.50;;;;;7.48;69.59;102360.75;5058624;28;45885;-80
2021/11/24 00:07:29;;;;;;;;;37.25;25.00;;;;;7.32;69.16;102338.09;5025059;28;45458;-80
2021/11/24 00:09:56;;;;;;;;;38.25;30.50;;;;;7.47;69.49;102365.97;5045295;28;47852;-80
2021/11/24 00:12:22;;;;;;;;;38.25;29.50;;;;;7.46;69.55;102351.03;5041025;28;45509;-80
2021/11/24 00:14:47;;;;;;;;;39.75;29.00;;;;;7.46;69.76;102346.66;5041053;28;45609;-80
2021/11/24 00:17:12;;;;;;;;;39.50;29.75;;;;;7.46;69.71;102337.88;5039716;28;59419;-80
2021/11/24 00:19:38;;;;;;;;;32.75;28.50;;;;;7.45;69.87;102334.31;5058028;28;64263;-80
2021/11/24 00:22:03;;;;;;;;;29.00;25.25;;;;;7.48;69.77;102336.22;5058393;28;51767;-81
2021/11/24 00:24:32;;;;;;;;;32.50;28.00;;;;;7.48;69.49;102334.47;5058340;28;57002;-80
2021/11/24 00:27:03;;;;;;;;;40.50;26.50;;;;;7.47;69.65;102332.69;5058846;28;45525;-80
2021/11/24 00:29:31;;;;;;;;;32.75;24.25;;;;;7.41;69.41;102327.16;5058854;28;46610;-80
2021/11/24 00:32:00;;;;;;;;;41.50;27.00;;;;;7.45;69.31;102331.69;5041253;28;45488;-80
2021/11/24 00:34:28;;;;;;;;;34.25;29.25;;;;;7.45;69.37;102338.69;5058117;28;63555;-81
2021/11/24 00:37:00;;;;;;;;;37.50;28.50;;;;;7.39;69.33;102325.25;5070464;28;45389;-80
2021/11/24 00:39:28;;;;;;;;;33.00;27.00;;;;;7.38;69.25;102328.72;5059424;28;46119;-81
2021/11/24 00:41:53;;;;;;;;;33.00;23.75;;;;;7.41;69.03;102332.41;5061403;28;45475;-80
2021/11/24 00:44:18;;;;;;;;;28.00;18.25;;;;;7.39;69.30;102328.78;5040668;28;45606;-81
2021/11/24 00:46:44;;;;;;;;;29.50;26.50;;;;;7.37;69.16;102326.94;5058705;28;45454;-80
2021/11/24 00:49:09;;;;;;;;;28.00;26.25;;;;;7.34;69.47;102328.56;5058280;28;46611;-80
2021/11/24 00:51:35;;;;;;;;;33.50;24.25;;;;;7.33;69.19;102324.13;5057609;28;45475;-80
2021/11/24 00:54:00;;;;;;;;;38.00;27.75;;;;;7.31;69.18;102320.53;5058413;28;46094;-79
2021/11/24 00:56:26;;;;;;;;;32.75;24.00;;;;;7.32;69.58;102318.81;5040498;28;45243;-79
2021/11/24 00:58:51;;;;;;;;;26.00;23.25;;;;;7.32;69.77;102322.34;5057494;28;66857;-80
2021/11/24 01:01:16;;;;;;;;;28.75;23.25;;;;;7.31;69.52;102315.28;5065556;28;60725;-79
2021/11/24 01:03:42;;;;;;;;;24.50;23.25;;;;;7.32;69.29;102316.19;5057917;28;53072;-79
2021/11/24 01:06:07;;;;;;;;;26.25;19.00;;;;;7.29;69.35;102301.16;5058467;28;45524;-79
2021/11/24 01:08:33;;;;;;;;;33.50;26.25;;;;;7.29;69.43;102306.41;5058378;28;48856;-79
2021/11/24 01:10:58;;;;;;;;;30.75;24.00;;;;;7.27;69.50;102302.81;5058295;28;45282;-79
2021/11/24 01:13:23;;;;;;;;;33.00;26.75;;;;;7.21;69.41;102291.13;5058027;28;47991;-80
2021/11/24 01:15:49;;;;;;;;;32.75;23.75;;;;;7.24;69.17;102304.41;5070459;28;57831;-79
2021/11/24 01:18:14;;;;;;;;;27.00;22.75;;;;;7.19;69.16;102287.50;5057705;28;46937;-79
2021/11/24 01:20:40;;;;;;;;;28.75;27.00;;;;;7.24;69.29;102307.91;5053329;28;46088;-79
2021/11/24 01:23:05;;;;;;;;;29.00;22.25;;;;;7.22;69.56;102295.56;5070752;28;45489;-79
2021/11/24 01:25:31;;;;;;;;;35.25;25.00;;;;;7.21;69.69;102296.38;5039890;28;50536;-79
2021/11/24 01:27:57;;;;;;;;;27.25;20.25;;;;;7.15;69.37;102286.47;5057044;28;66120;-79
2021/11/24 01:30:22;;;;;;;;;31.50;26.00;;;;;7.19;69.35;102292.75;5039890;28;45472;-79
2021/11/24 01:32:48;;;;;;;;;23.00;19.50;;;;;7.19;69.32;102293.69;5039224;28;58728;-79
2021/11/24 01:35:13;;;;;;;;;33.50;23.75;;;;;7.18;69.35;102294.50;5057647;28;46748;-79
2021/11/24 01:37:39;;;;;;;;;32.00;27.00;;;;;7.18;69.54;102286.63;5057842;28;47411;-78
2021/11/24 01:40:05;;;;;;;;;36.25;28.50;;;;;7.17;69.46;102278.66;5057123;28;45402;-79
2021/11/24 01:42:30;;;;;;;;;27.25;21.75;;;;;7.16;69.45;102283.03;5070895;28;45581;-80
2021/11/24 01:44:56;;;;;;;;;30.50;23.25;;;;;7.14;69.44;102275.88;5057878;28;45359;-80
2021/11/24 01:47:21;;;;;;;;;33.50;24.25;;;;;7.13;69.44;102276.72;5057108;28;47274;-80
2021/11/24 01:49:48;;;;;;;;;28.50;20.00;;;;;7.11;69.39;102279.28;5039175;28;56540;-81
2021/11/24 01:52:14;;;;;;;;;37.00;23.00;;;;;7.09;69.47;102275.69;5039504;28;45246;-81
2021/11/24 01:54:39;;;;;;;;;22.00;21.25;;;;;7.07;69.45;102267.72;5039618;28;45305;-80
2021/11/24 01:57:04;;;;;;;;;25.50;18.75;;;;;7.07;69.55;102267.72;5056814;28;55494;-79
2021/11/24 01:59:30;;;;;;;;;19.50;17.00;;;;;7.07;69.25;102261.56;5057416;28;45460;-80
2021/11/24 02:01:55;;;;;;;;;25.50;21.00;;;;;7.06;69.29;102259.78;5057074;28;57522;-81
2021/11/24 02:04:21;;;;;;;;;30.25;22.50;;;;;7.05;69.50;102260.59;5057661;28;45160;-79
2021/11/24 02:06:46;;;;;;;;;31.25;22.75;;;;;7.03;69.25;102259.59;5056908;28;57660;-81
2021/11/24 02:09:12;;;;;;;;;28.75;24.00;;;;;7.02;69.41;102257.81;5060864;28;45452;-81
2021/11/24 02:11:39;;;;;;;;;34.75;22.50;;;;;7.01;69.55;102253.41;5063111;28;45381;-82
2021/11/24 02:14:06;;;;;;;;;32.00;22.25;;;;;6.92;69.30;102243.34;5039409;28;45349;-81
2021/11/24 02:16:31;;;;;;;;;33.00;27.00;;;;;7.00;69.48;102247.25;5056987;28;46338;-81
2021/11/24 02:18:57;;;;;;;;;34.50;21.25;;;;;7.00;69.33;102248.97;5057305;28;45506;-81
2021/11/24 02:21:22;;;;;;;;;27.25;22.25;;;;;6.95;69.28;102248.75;5056459;28;58508;-81
2021/11/24 02:23:47;;;;;;;;;33.75;23.50;;;;;6.98;69.79;102250.63;5056781;28;51293;-81
2021/11/24 02:26:13;;;;;;;;;38.00;26.25;;;;;6.96;69.60;102247.03;5056130;28;48086;-81
2021/11/24 02:28:39;;;;;;;;;30.00;26.00;;;;;6.94;69.66;102246.97;5056064;28;65288;-81
2021/11/24 02:31:05;;;;;;;;;31.25;24.25;;;;;6.96;69.55;102247.91;5022405;28;45227;-81
2021/11/24 02:33:30;;;;;;;;;26.50;22.50;;;;;6.93;69.91;102237.28;5056942;28;45540;-81
2021/11/24 02:35:55;;;;;;;;;35.50;27.00;;;;;6.98;69.86;102237.50;5056125;28;68821;-82
2021/11/24 02:38:21;;;;;;;;;28.50;23.00;;;;;6.96;69.74;102236.50;5038533;28;51369;-81
2021/11/24 02:40:46;;;;;;;;;26.00;23.00;;;;;6.96;69.66;102231.25;5056810;28;45235;-81
2021/11/24 02:43:12;;;;;;;;;36.25;27.50;;;;;6.94;69.90;102236.44;5072573;28;45616;-81
2021/11/24 02:45:37;;;;;;;;;33.75;28.00;;;;;6.91;69.68;102220.53;5056928;28;47033;-82
2021/11/24 02:48:03;;;;;;;;;30.50;20.00;;;;;6.95;69.76;102234.72;5069305;28;58679;-80
2021/11/24 02:50:28;;;;;;;;;32.75;22.75;;;;;6.94;69.73;102232.94;5056846;28;45332;-81
2021/11/24 02:52:54;;;;;;;;;32.25;25.00;;;;;6.91;69.58;102222.25;5056532;28;45350;-81
2021/11/24 02:55:19;;;;;;;;;32.50;26.00;;;;;6.88;69.85;102216.88;5038549;28;47370;-81
2021/11/24 02:57:47;;;;;;;;;35.50;23.50;;;;;6.91;69.41;102220.53;5037847;28;61214;-81
2021/11/24 03:00:13;;;;;;;;;30.75;24.00;;;;;6.86;69.59;102205.38;5068503;28;45305;-81
2021/11/24 03:02:38;;;;;;;;;26.00;21.25;;;;;6.87;69.45;102215.06;5057173;28;45410;-81
2021/11/24 03:05:04;;;;;;;;;34.75;26.75;;;;;6.87;69.42;102215.06;5021851;28;46602;-81
2021/11/24 03:07:30;;;;;;;;;36.75;27.25;;;;;6.83;69.24;102207.06;5056415;28;45361;-82
2021/11/24 03:09:55;;;;;;;;;32.00;26.50;;;;;6.83;69.63;102214.94;5055873;28;52004;-82
2021/11/24 03:12:21;;;;;;;;;34.75;23.50;;;;;6.75;69.42;102204.88;5055975;28;56447;-81
2021/11/24 03:14:46;;;;;;;;;30.00;23.00;;;;;6.76;69.42;102201.41;5056364;28;46486;-82
2021/11/24 03:17:11;;;;;;;;;27.75;22.50;;;;;6.76;69.32;102202.31;5056285;28;45419;-81
2021/11/24 03:19:37;;;;;;;;;37.75;26.00;;;;;6.76;69.54;102196.16;5055433;28;63225;-80
2021/11/24 03:22:02;;;;;;;;;29.75;21.25;;;;;6.75;69.63;102194.38;5056404;28;45358;-81
2021/11/24 03:24:28;;;;;;;;;34.75;22.75;;;;;6.73;69.42;102188.16;5056120;28;46585;-81
2021/11/24 03:26:53;;;;;;;;;30.50;25.25;;;;;6.73;69.42;102190.78;5055630;28;58652;-82
2021/11/24 03:29:18;;;;;;;;;38.25;25.00;;;;;6.72;69.38;102187.25;5056435;28;45430;-81
2021/11/24 03:31:44;;;;;;;;;34.25;23.50;;;;;6.71;69.33;102181.91;5056457;28;45484;-81
2021/11/24 03:34:10;;;;;;;;;31.00;24.00;;;;;6.68;69.40;102172.19;5055592;28;60253;-81
2021/11/24 03:36:36;;;;;;;;;27.50;21.50;;;;;6.69;69.30;102181.84;5037959;28;45294;-81
2021/11/24 03:39:02;;;;;;;;;31.75;28.50;;;;;6.66;69.34;102175.53;5059255;28;45464;-81
2021/11/24 03:41:28;;;;;;;;;34.50;22.75;;;;;6.67;69.37;102180.00;5059884;28;45535;-81
2021/11/24 03:43:53;;;;;;;;;35.00;24.25;;;;;6.61;69.28;102170.09;5058608;28;64853;-81
2021/11/24 03:46:18;;;;;;;;;30.75;21.25;;;;;6.63;69.03;102175.41;5058849;28;62469;-81
2021/11/24 03:48:44;;;;;;;;;34.00;21.25;;;;;6.58;69.15;102177.81;5058965;28;55866;-80
2021/11/24 03:51:09;;;;;;;;;35.75;27.50;;;;;6.55;69.19;102162.84;5041345;28;45571;-81
2021/11/24 03:53:40;;;;;;;;;29.75;23.25;;;;;6.56;68.93;102166.34;5070909;28;64030;-81
2021/11/24 03:56:05;;;;;;;;;29.00;22.00;;;;;6.52;69.17;102157.44;5059340;28;45449;-80
2021/11/24 03:58:30;;;;;;;;;27.75;24.00;;;;;6.54;69.37;102162.75;5058589;28;64504;-82
2021/11/24 04:00:56;;;;;;;;;30.75;19.50;;;;;6.53;69.20;102166.19;5059015;28;51993;-81
2021/11/24 04:03:21;;;;;;;;;33.50;24.50;;;;;6.54;69.27;102154.88;5040359;28;71215;-81
2021/11/24 04:05:46;;;;;;;;;30.75;23.75;;;;;6.52;69.38;102160.06;5058773;28;57893;-81
2021/11/24 04:08:12;;;;;;;;;30.00;22.25;;;;;6.51;69.26;102150.38;5059256;28;45497;-81
2021/11/24 04:10:37;;;;;;;;;32.25;22.75;;;;;6.51;69.22;102157.38;5059406;28;45488;-81
2021/11/24 04:13:03;;;;;;;;;34.75;25.50;;;;;6.48;69.03;102152.84;5058961;28;46255;-81
2021/11/24 04:15:28;;;;;;;;;34.25;25.50;;;;;6.46;68.98;102149.25;5058527;28;60090;-80
2021/11/24 04:17:53;;;;;;;;;27.25;23.50;;;;;6.45;69.10;102150.09;5058394;28;55389;-80
2021/11/24 04:20:19;;;;;;;;;28.00;24.00;;;;;6.43;68.94;102149.09;5058851;28;45493;-81
2021/11/24 04:22:44;;;;;;;;;30.50;23.25;;;;;6.41;68.98;102142.88;5040907;28;47362;-80
2021/11/24 04:25:10;;;;;;;;;32.50;24.75;;;;;6.40;68.99;102141.09;5058656;28;45230;-81
2021/11/24 04:27:36;;;;;;;;;30.00;23.25;;;;;6.40;69.27;102145.44;5058643;28;45329;-81
2021/11/24 04:30:01;;;;;;;;;26.50;21.25;;;;;6.40;69.18;102132.34;5058348;28;55439;-81
2021/11/24 04:32:26;;;;;;;;;25.50;22.50;;;;;6.32;69.19;102121.44;5058590;28;47605;-81
2021/11/24 04:34:52;;;;;;;;;30.50;23.75;;;;;6.36;69.36;102122.50;5058777;28;45280;-81
2021/11/24 04:37:17;;;;;;;;;30.25;21.00;;;;;6.32;69.27;102120.53;5024273;28;45268;-81
2021/11/24 04:39:43;;;;;;;;;26.25;22.50;;;;;6.36;69.40;102127.75;5058707;28;45433;-81
2021/11/24 04:42:09;;;;;;;;;31.75;24.25;;;;;6.35;69.20;102128.59;5058582;28;47360;-81
2021/11/24 04:44:34;;;;;;;;;28.50;21.25;;;;;6.36;69.25;102130.38;5058575;28;45479;-80
2021/11/24 04:47:00;;;;;;;;;23.75;22.00;;;;;6.32;69.53;102121.44;5054076;28;45553;-81
2021/11/24 04:49:25;;;;;;;;;28.00;21.00;;;;;6.34;69.58;102122.44;5058463;28;45388;-80
2021/11/24 04:51:50;;;;;;;;;27.75;21.75;;;;;6.35;70.10;102112.84;5041362;28;62051;-81
2021/11/24 04:54:16;;;;;;;;;27.50;23.25;;;;;6.36;70.25;102119.88;5039695;28;61095;-81
2021/11/24 04:56:41;;;;;;;;;30.00;22.50;;;;;6.37;70.43;102113.81;5040438;28;45349;-80
2021/11/24 04:59:07;;;;;;;;;33.00;22.75;;;;;6.42;70.37;102128.03;5066080;28;59418;-81
2021/11/24 05:01:32;;;;;;;;;25.00;22.00;;;;;6.40;70.22;102116.59;5075918;28;45650;-81
2021/11/24 05:03:58;;;;;;;;;26.75;20.50;;;;;6.46;70.50;102116.88;5058125;28;45243;-81
2021/11/24 05:06:23;;;;;;;;;30.00;20.00;;;;;6.45;70.07;102110.75;5058271;28;45825;-81
2021/11/24 05:08:49;;;;;;;;;32.75;26.75;;;;;6.46;70.09;102111.63;5035661;28;45443;-80
2021/11/24 05:11:15;;;;;;;;;27.50;19.75;;;;;6.44;70.15;102110.63;5057919;28;47680;-82
2021/11/24 05:13:51;;;;;;;;;32.00;23.00;;;;;6.48;70.08;102112.59;5058564;28;45243;-80
2021/11/24 05:18:52;;;;;;;;;29.00;22.25;;;;;6.47;70.17;102108.19;4927056;26;45450;-82
2021/11/24 05:23:48;;;;;;;;;26.50;21.50;;;;;6.49;70.26;102117.00;5037127;28;45759;-81
2021/11/24 05:26:14;;;;;;;;;31.75;21.75;;;;;6.49;70.42;102107.41;5033043;28;45366;-81
2021/11/24 05:28:39;;;;;;;;;26.50;23.25;;;;;6.48;70.25;102105.63;5017474;28;50429;-81
2021/11/24 05:31:05;;;;;;;;;25.25;20.00;;;;;6.48;70.21;102108.25;5013069;28;47602;-80
2021/11/24 05:33:30;;;;;;;;;31.25;23.25;;;;;6.46;70.23;102102.03;5037194;28;45324;-81
2021/11/24 05:35:55;;;;;;;;;37.00;24.50;;;;;6.46;70.03;102115.16;5030244;28;45442;-81
2021/11/24 05:38:21;;;;;;;;;33.75;19.75;;;;;6.46;69.99;102103.75;5014115;28;55205;-77
2021/11/24 05:40:46;;;;;;;;;32.00;24.50;;;;;6.45;69.91;102112.47;5022101;28;47018;-78
2021/11/24 05:43:13;;;;;;;;;24.50;21.25;;;;;6.41;69.87;102100.03;5036642;28;61200;-76
2021/11/24 05:45:44;;;;;;;;;33.00;26.25;;;;;6.42;69.75;102100.09;5023843;28;45397;-78
2021/11/24 05:48:10;;;;;;;;;27.00;21.00;;;;;6.40;69.80;102101.75;5017930;28;45318;-76
2021/11/24 05:50:36;;;;;;;;;26.25;21.00;;;;;6.40;69.86;102098.22;5026513;28;46463;-77
2021/11/24 05:53:01;;;;;;;;;28.25;18.25;;;;;6.38;69.90;102098.13;5002711;28;45566;-77
2021/11/24 05:55:27;;;;;;;;;31.00;18.00;;;;;6.36;69.79;102098.91;5027435;28;45420;-77
2021/11/24 05:57:52;;;;;;;;;25.00;20.75;;;;;6.37;69.87;102092.81;5037328;28;45417;-77
2021/11/24 06:00:18;;;;;;;;;28.50;21.00;;;;;6.29;69.93;102088.13;5022857;28;47041;-78
2021/11/24 06:02:43;;;;;;;;;22.25;19.75;;;;;6.35;70.06;102084.88;5013857;28;45445;-81
2021/11/24 06:05:09;;;;;;;;;30.00;21.00;;;;;6.30;69.88;102079.41;5037102;28;45407;-81
2021/11/24 06:07:34;;;;;;;;;28.00;20.75;;;;;6.28;69.90;102075.81;5005824;28;45529;-81
2021/11/24 06:10:01;;;;;;;;;23.00;18.75;;;;;6.25;69.69;102073.03;4996127;28;46491;-80
2021/11/24 06:12:26;;;;;;;;;27.25;24.50;;;;;6.30;69.83;102084.66;5034632;28;45338;-81
2021/11/24 06:14:52;;;;;;;;;29.75;24.25;;;;;6.25;69.67;102080.91;5037386;28;54057;-80
2021/11/24 06:17:17;;;;;;;;;27.25;24.50;;;;;6.27;69.81;102074.00;5003585;28;58449;-81
2021/11/24 06:19:42;;;;;;;;;28.75;21.50;;;;;6.26;69.86;102082.69;5031290;28;61009;-81
2021/11/24 06:22:08;;;;;;;;;25.75;22.50;;;;;6.25;69.87;102087.88;5022291;28;56654;-80
2021/11/24 06:24:33;;;;;;;;;35.75;22.50;;;;;6.25;69.53;102080.91;5026712;28;45779;-83
2021/11/24 06:26:59;;;;;;;;;25.00;19.50;;;;;6.23;69.76;102077.31;5028380;28;55732;-79
2021/11/24 06:29:24;;;;;;;;;20.75;15.25;;;;;6.26;69.54;102080.06;5009121;28;46269;-80
2021/11/24 06:31:49;;;;;;;;;25.00;20.00;;;;;6.25;69.53;102077.41;5033069;28;62368;-81
2021/11/24 06:34:15;;;;;;;;;38.75;19.50;;;;;6.25;69.59;102080.00;5031644;28;60002;-81
2021/11/24 06:36:40;;;;;;;;;28.50;22.00;;;;;6.25;70.02;102082.63;5024818;28;45411;-76
2021/11/24 06:39:06;;;;;;;;;29.25;21.75;;;;;6.24;70.34;102075.59;5034147;28;53024;-76
2021/11/24 06:41:31;;;;;;;;;31.50;21.25;;;;;6.22;70.15;102065.00;5036625;28;45379;-77
2021/11/24 06:43:57;;;;;;;;;22.50;21.50;;;;;6.20;69.86;102066.66;5033607;28;45463;-76
2021/11/24 06:46:22;;;;;;;;;24.75;17.50;;;;;6.14;70.15;102058.50;5035624;28;45356;-76
2021/11/24 06:48:48;;;;;;;;;30.25;19.00;;;;;6.20;70.24;102077.16;5033739;28;66903;-76
2021/11/24 06:51:13;;;;;;;;;31.25;22.00;;;;;6.13;69.97;102064.59;5034288;28;45446;-76
2021/11/24 06:53:40;;;;;;;;;22.75;20.00;;;;;6.16;69.86;102075.22;5028948;28;45390;-75
2021/11/24 06:56:06;;;;;;;;;35.00;20.75;;;;;6.13;69.96;102075.06;5036064;28;45374;-76
2021/11/24 06:58:31;;;;;;;;;26.25;22.00;;;;;6.11;69.50;102075.81;5027289;28;66845;-76
2021/11/24 07:00:59;;;;;;;;;28.25;20.50;;;;;6.04;69.68;102065.03;5034508;28;45518;-76
2021/11/24 07:03:25;;;;;;;;;26.50;18.25;;;;;5.96;70.04;102061.13;5036322;28;45400;-76
2021/11/24 07:05:50;;;;;;;;;28.00;20.25;;;;;5.88;70.49;102066.78;5022364;28;58021;-76
2021/11/24 07:08:16;;;;;;;;;29.00;23.00;;;;;5.76;70.54;102052.25;5035653;28;46167;-76
2021/11/24 07:10:41;;;;;;;;;25.25;18.75;;;;;5.67;71.95;102045.66;5034555;28;45173;-76
2021/11/24 07:13:06;;;;;;;;;25.00;19.50;;;;;5.61;71.65;102061.06;5027227;28;53957;-76
2021/11/24 07:15:33;;;;;;;;;25.50;20.25;;;;;5.57;71.56;102053.88;5039485;28;55979;-76
2021/11/24 07:17:58;;;;;;;;;30.50;17.00;;;;;5.57;71.33;102064.34;5030700;28;46683;-75
2021/11/24 07:20:24;;;;;;;;;28.00;21.00;;;;;5.58;72.77;102053.03;5034007;28;45365;-78
2021/11/24 07:22:49;;;;;;;;;30.00;23.00;;;;;5.59;71.85;102063.59;5031347;28;45595;-76
2021/11/24 07:25:15;;;;;;;;;19.50;16.25;;;;;5.61;72.61;102054.09;5032037;28;45274;-76
2021/11/24 07:27:41;;;;;;;;;27.25;20.75;;;;;5.56;72.60;102046.84;5024621;28;45847;-77
2021/11/24 07:30:07;;;;;;;;;27.25;16.25;;;;;5.56;71.65;102047.72;5020575;28;45726;-77
2021/11/24 07:32:32;;;;;;;;;29.75;18.00;;;;;5.57;71.74;102046.91;5019225;28;45667;-80
2021/11/24 07:34:57;;;;;;;;;25.25;21.00;;;;;5.61;71.58;102048.84;5016214;28;50251;-81
2021/11/24 07:37:24;;;;;;;;;27.25;20.00;;;;;5.66;71.67;102041.22;5003596;28;45648;-81
2021/11/24 07:39:50;;;;;;;;;21.50;19.00;;;;;5.65;71.49;102037.72;5019974;28;46887;-82
2021/11/24 07:42:15;;;;;;;;;20.25;17.00;;;;;5.78;71.52;102050.59;4988128;28;45924;-82
2021/11/24 07:44:41;;;;;;;;;32.00;21.75;;;;;5.83;71.70;102042.97;5021040;28;55853;-82
2021/11/24 07:47:06;;;;;;;;;29.00;22.75;;;;;5.88;71.47;102040.56;4966275;28;47280;-83
2021/11/24 07:49:31;;;;;;;;;24.50;18.00;;;;;5.91;71.27;102049.53;4986444;28;47014;-83
2021/11/24 07:51:57;;;;;;;;;25.00;15.00;;;;;5.93;71.44;102041.75;4983733;28;46769;-83
2021/11/24 07:54:22;;;;;;;;;24.50;18.50;;;;;5.99;71.16;102049.91;4983720;28;46515;-83
2021/11/24 07:56:48;;;;;;;;;26.25;22.00;;;;;6.01;70.97;102051.75;4954360;28;55883;-84
2021/11/24 07:59:13;;;;;;;;;22.00;17.75;;;;;6.06;71.09;102040.59;4980181;28;67893;-84
2021/11/24 08:01:38;;;;;;;;;23.50;18.00;;;;;6.11;71.11;102045.25;4982124;28;46930;-82
2021/11/24 08:04:04;;;;;;;;;26.25;18.50;;;;;6.10;70.79;102032.97;5002754;28;55520;-81
2021/11/24 08:06:29;;;;;;;;;20.00;17.50;;;;;6.18;70.97;102042.13;5002532;28;60604;-82
2021/11/24 08:08:54;;;;;;;;;18.50;14.25;;;;;6.25;70.71;102032.81;4983531;28;55354;-82
2021/11/24 08:11:20;;;;;;;;;20.00;20.00;;;;;6.25;70.85;102030.19;4999630;28;54967;-80
2021/11/24 08:13:47;;;;;;;;;23.50;15.50;;;;;6.34;70.58;102045.44;5002083;28;45969;-82
2021/11/24 08:16:12;;;;;;;;;24.75;18.25;;;;;6.32;70.64;102028.75;5001475;28;46279;-80
2021/11/24 08:18:37;;;;;;;;;20.25;15.75;;;;;6.46;70.54;102043.41;5002540;28;50504;-76
2021/11/24 08:21:03;;;;;;;;;22.50;18.50;;;;;6.47;70.46;102039.97;4999894;28;61323;-77
2021/11/24 08:23:28;;;;;;;;;21.75;20.75;;;;;6.57;70.37;102044.81;4984542;28;45989;-77
2021/11/24 08:25:55;;;;;;;;;13.50;12.25;;;;;6.61;70.48;102045.88;4996397;28;53336;-78
2021/11/24 08:28:21;;;;;;;;;22.00;15.00;;;;;6.63;70.07;102039.84;4981497;28;46263;-77
2021/11/24 08:30:47;;;;;;;;;19.50;18.00;;;;;6.71;69.94;102041.13;4998268;28;57712;-79
2021/11/24 08:33:12;;;;;;;;;21.50;17.25;;;;;6.78;70.03;102037.03;4979720;28;45638;-78
2021/11/24 08:35:37;;;;;;;;;21.50;14.50;;;;;6.86;69.95;102033.00;4967992;28;47197;-78
2021/11/24 08:38:03;;;;;;;;;16.00;11.50;;;;;6.90;69.54;102019.22;4983466;28;45599;-76
2021/11/24 08:40:28;;;;;;;;;24.50;13.50;;;;;6.88;69.73;102012.09;4998578;28;46766;-79
2021/11/24 08:42:54;;;;;;;;;14.50;14.00;;;;;6.94;69.35;102025.50;5007374;28;50634;-80
2021/11/24 08:45:19;;;;;;;;;15.50;13.25;;;;;6.93;69.34;102026.34;5032673;28;51980;-79
2021/11/24 08:47:45;;;;;;;;;17.00;15.25;;;;;6.87;69.45;102013.84;4999995;28;45589;-79
2021/11/24 08:50:12;;;;;;;;;27.75;16.00;;;;;6.93;69.49;102014.09;5028391;28;45669;-78
2021/11/24 08:52:37;;;;;;;;;21.75;13.75;;;;;6.99;69.70;102016.09;5015479;28;45598;-79
2021/11/24 08:55:04;;;;;;;;;27.50;19.50;;;;;7.04;69.52;102014.59;5026508;28;47422;-78
2021/11/24 08:57:29;;;;;;;;;31.50;19.75;;;;;7.08;69.53;102020.03;5029922;28;45640;-79
2021/11/24 08:59:55;;;;;;;;;22.00;16.00;;;;;7.13;69.38;102017.59;5025305;28;53976;-78
2021/11/24 09:02:23;;;;;;;;;23.50;17.50;;;;;7.17;69.45;102009.03;5016757;28;61698;-77
2021/11/24 09:04:49;;;;;;;;;25.00;17.25;;;;;7.24;69.36;102004.91;5031541;28;47634;-78
2021/11/24 09:07:14;;;;;;;;;22.25;18.00;;;;;7.24;69.17;101986.53;5014045;28;66691;-78
2021/11/24 09:09:41;;;;;;;;;25.00;17.75;;;;;7.35;69.03;101990.56;5015598;28;45632;-78
2021/11/24 09:12:07;;;;;;;;;21.25;16.00;;;;;7.39;69.02;101996.81;5028621;28;45660;-78
2021/11/24 09:14:33;;;;;;;;;21.75;19.50;;;;;7.36;68.71;101979.19;5013774;28;48197;-78
2021/11/24 09:16:58;;;;;;;;;20.50;18.25;;;;;7.41;68.77;101988.19;5010615;28;45696;-78
2021/11/24 09:19:24;;;;;;;;;32.50;16.25;;;;;7.44;68.59;101983.03;5029993;28;60386;-78
2021/11/24 09:21:49;;;;;;;;;31.50;22.25;;;;;7.55;68.53;101983.47;5025222;28;54815;-77
2021/11/24 09:24:21;;;;;;;;;20.75;18.75;;;;;7.57;68.54;101976.56;5031487;28;47370;-78
2021/11/24 09:27:12;;;;;;;;;31.25;22.75;;;;;7.60;68.23;101972.31;5030312;28;45584;-78
2021/11/24 09:29:34;;;;;;;;;26.75;20.25;;;;;7.77;68.30;101974.75;5029475;28;45434;-78
2021/11/24 09:32:04;;;;;;;;;31.00;24.25;;;;;7.85;68.42;101975.97;5029870;28;59171;-77
2021/11/24 09:34:30;;;;;;;;;23.00;19.00;;;;;7.92;68.18;101985.00;5030363;28;46943;-79
2021/11/24 09:36:56;;;;;;;;;23.00;17.75;;;;;7.94;68.16;101972.81;5025629;28;45553;-79
2021/11/24 09:39:21;;;;;;;;;27.75;17.50;;;;;7.97;68.20;101972.94;5021027;28;45819;-80
2021/11/24 09:41:46;;;;;;;;;23.00;18.75;;;;;8.01;67.85;101969.59;5024324;28;45313;-79
2021/11/24 09:44:12;;;;;;;;;24.25;15.50;;;;;8.02;67.66;101974.00;5020737;28;45387;-80
2021/11/24 09:46:47;;;;;;;;;30.50;20.00;;;;;8.06;67.67;101974.19;5026913;28;45424;-78
2021/11/24 09:49:13;;;;;;;;;20.25;19.25;;;;;8.09;67.68;101962.88;5028402;28;45587;-81
2021/11/24 09:51:39;;;;;;;;;18.50;10.00;;;;;8.07;67.68;101954.03;5026557;28;45530;-77
2021/11/24 09:54:04;;;;;;;;;24.25;20.75;;;;;8.15;67.53;101968.41;5034612;28;47302;-79
2021/11/24 09:56:30;;;;;;;;;25.00;16.50;;;;;8.11;67.52;101963.84;5027032;28;45391;-78
2021/11/24 09:58:55;;;;;;;;;16.50;16.50;;;;;8.18;67.34;101964.97;5032502;28;45473;-79
2021/11/24 10:01:21;;;;;;;;;27.50;14.50;;;;;8.17;67.42;101960.56;5025646;28;55024;-78
2021/11/24 10:03:48;;;;;;;;;22.00;18.75;;;;;8.19;67.62;101961.50;5027490;28;46538;-77
2021/11/24 10:06:13;;;;;;;;;22.50;15.75;;;;;8.27;67.08;101958.34;5028309;28;45567;-75
2021/11/24 10:08:38;;;;;;;;;16.75;14.75;;;;;8.29;66.95;101954.03;5030262;28;45900;-78
2021/11/24 10:11:04;;;;;;;;;23.75;19.75;;;;;8.33;66.84;101958.56;5028800;28;56716;-77
2021/11/24 10:13:29;;;;;;;;;20.25;16.75;;;;;8.35;66.55;101958.63;5026283;28;61290;-78
2021/11/24 10:16:31;;;;;;;;;20.75;17.00;;;;;8.38;67.11;101961.41;5026921;28;45316;-78
2021/11/24 10:22:42;;;;;;;;;19.75;16.50;;;;;8.38;66.66;101946.53;4986166;28;45490;-78
2021/11/24 10:25:16;;;;;;;;;20.25;16.00;;;;;8.46;66.81;101957.31;5031053;28;45360;-78
2021/11/24 10:27:47;;;;;;;;;19.00;16.00;;;;;8.47;66.49;101947.69;5031411;28;45461;-77
2021/11/24 10:30:27;;;;;;;;;22.00;18.75;;;;;8.53;66.56;101942.69;5027045;28;45628;-78
2021/11/24 10:32:52;;;;;;;;;18.75;17.00;;;;;8.50;66.54;101922.38;5026617;28;45556;-78
2021/11/24 10:35:27;;;;;;;;;21.25;15.75;;;;;8.52;66.56;101939.16;5026503;28;47587;-80
2021/11/24 10:38:15;;;;;;;;;21.75;16.75;;;;;8.49;66.46;101907.44;5027115;28;45579;-83
2021/11/24 10:40:45;;;;;;;;;22.25;16.00;;;;;8.57;66.77;101903.34;5030740;28;45500;-80
2021/11/24 10:43:12;;;;;;;;;23.00;19.00;;;;;8.68;66.36;101911.63;5013646;28;45721;-81
2021/11/24 10:45:37;;;;;;;;;20.25;18.25;;;;;8.74;66.14;101897.81;5029327;28;47135;-81
2021/11/24 10:48:03;;;;;;;;;29.50;23.25;;;;;8.82;66.31;101907.75;5023340;28;59077;-79
2021/11/24 10:50:30;;;;;;;;;21.50;17.00;;;;;8.88;66.04;101907.97;5029615;28;45483;-80
2021/11/24 10:52:56;;;;;;;;;20.50;18.25;;;;;8.92;65.85;101901.97;5032584;28;45594;-78
2021/11/24 10:55:54;;;;;;;;;27.00;19.25;;;;;8.96;65.79;101896.81;5026414;28;46467;-77
2021/11/24 10:58:25;;;;;;;;;26.75;21.25;;;;;9.08;65.44;101899.88;5002266;28;45378;-78
2021/11/24 11:00:55;;;;;;;;;22.25;20.50;;;;;9.04;65.68;101879.53;5028156;28;45466;-77
2021/11/24 11:03:21;;;;;;;;;39.00;32.50;;;;;9.06;65.54;101875.22;5027106;28;45663;-77
2021/11/24 11:05:49;;;;;;;;;33.75;26.25;;;;;9.16;65.60;101874.66;5009396;28;47351;-78
2021/11/24 11:08:17;;;;;;;;;25.75;16.75;;;;;9.19;65.52;101864.22;5014612;28;45273;-78
2021/11/24 11:11:30;;;;;;;;;21.75;21.25;;;;;9.23;65.33;101857.34;5029013;28;45653;-77
2021/11/24 11:14:18;;;;;;;;;23.00;18.25;;;;;9.22;65.13;101856.44;5024659;28;45212;-77
2021/11/24 11:16:54;;;;;;;;;20.75;18.25;;;;;9.24;65.05;101853.84;5027239;28;47511;-77
2021/11/24 11:19:57;;;;;;;;;25.75;17.75;;;;;9.24;65.03;101846.84;5033443;28;45579;-76
2021/11/24 11:23:04;;;;;;;;;32.50;25.50;;;;;9.14;65.06;101806.09;5002679;28;45498;-76